createdAt,value
2019-04-30T00:01:55.560Z,25.13
2019-04-30T00:04:29.804Z,22.13
2019-04-30T00:07:00.593Z,23.97
2019-04-30T00:09:30.873Z,24.20
2019-04-30T00:12:01.436Z,23.03
2019-04-30T00:14:37.306Z,24.27
2019-04-30T00:17:03.402Z,22.87
2019-04-30T00:19:33.245Z,24.17
2019-04-30T00:22:03.221Z,24.23
2019-04-30T00:24:33.149Z,24.93
2019-04-30T00:27:04.994Z,25.47
2019-04-30T00:29:35.693Z,27.73
2019-04-30T00:32:07.952Z,23.43
2019-04-30T00:34:39.339Z,26.93
2019-04-30T00:37:13.865Z,26.63
2019-04-30T00:39:44.371Z,28.80
2019-04-30T00:42:12.195Z,24.77
2019-04-30T00:44:41.981Z,25.47
2019-04-30T00:47:11.986Z,26.13
2019-04-30T00:49:41.920Z,27.47
2019-04-30T00:52:11.855Z,28.90
2019-04-30T00:54:41.714Z,24.03
2019-04-30T00:57:12.008Z,26.43
2019-04-30T00:59:44.626Z,25.07
2019-04-30T01:02:31.683Z,25.83
2019-04-30T01:05:05.181Z,25.83
2019-04-30T01:07:29.975Z,27.90
2019-04-30T01:09:59.839Z,25.77
2019-04-30T01:12:36.374Z,28.33
2019-04-30T01:15:06.549Z,26.70
2019-04-30T01:17:35.053Z,23.27
2019-04-30T01:20:05.984Z,26.07
2019-04-30T01:22:36.230Z,29.67
2019-04-30T01:25:11.701Z,24.97
2019-04-30T01:27:39.526Z,27.50
2019-04-30T01:30:13.244Z,28.67
2019-04-30T01:32:42.518Z,25.70
2019-04-30T01:35:12.488Z,26.97
2019-04-30T01:37:42.404Z,27.63
2019-04-30T01:40:13.951Z,25.90
2019-04-30T01:42:48.587Z,30.20
2019-04-30T01:45:15.615Z,29.97
2019-04-30T01:47:45.745Z,32.43
2019-04-30T01:50:15.998Z,28.70
2019-04-30T01:52:54.968Z,27.67
2019-04-30T01:55:41.433Z,29.23
2019-04-30T01:58:30.182Z,30.50
2019-04-30T02:01:03.797Z,28.63
2019-04-30T02:03:33.633Z,32.07
2019-04-30T02:06:03.572Z,31.27
2019-04-30T02:08:33.786Z,33.23
2019-04-30T02:11:03.722Z,30.43
2019-04-30T02:13:34.586Z,30.17
2019-04-30T02:16:04.672Z,29.70
2019-04-30T02:18:34.608Z,34.57
2019-04-30T02:21:04.598Z,34.83
2019-04-30T02:23:34.373Z,33.07
2019-04-30T02:26:04.310Z,33.03
2019-04-30T02:28:34.236Z,40.27
2019-04-30T02:31:04.129Z,36.70
2019-04-30T02:33:35.714Z,42.77
2019-04-30T02:36:30.989Z,37.60
2019-04-30T02:39:02.759Z,40.07
2019-04-30T02:41:34.394Z,39.63
2019-04-30T02:44:05.741Z,42.37
2019-04-30T02:46:40.498Z,42.53
2019-04-30T02:49:10.923Z,40.80
2019-04-30T02:51:42.471Z,43.63
2019-04-30T02:54:24.007Z,41.60
2019-04-30T02:57:13.532Z,45.03
2019-04-30T03:00:01.686Z,40.50
2019-04-30T03:02:33.275Z,42.27
2019-04-30T03:05:03.514Z,41.60
2019-04-30T03:07:33.450Z,43.47
2019-04-30T03:10:03.341Z,45.63
2019-04-30T03:12:33.972Z,49.90
2019-04-30T03:15:04.204Z,45.30
2019-04-30T03:17:50.369Z,40.90
2019-04-30T03:20:36.393Z,44.33
2019-04-30T03:23:06.317Z,41.70
2019-04-30T03:25:36.531Z,47.00
2019-04-30T03:28:06.511Z,40.23
2019-04-30T03:30:41.378Z,47.70
2019-04-30T03:33:12.212Z,44.00
2019-04-30T03:35:42.224Z,47.17
2019-04-30T03:38:12.119Z,44.27
2019-04-30T03:40:41.999Z,43.57
2019-04-30T03:43:12.256Z,44.67
2019-04-30T03:45:42.047Z,41.23
2019-04-30T03:48:11.966Z,46.60
2019-04-30T03:50:53.232Z,45.40
2019-04-30T03:53:13.572Z,45.00
2019-04-30T03:55:43.777Z,45.73
2019-04-30T03:58:13.705Z,46.27
2019-04-30T04:00:54.216Z,48.03
2019-04-30T04:03:24.169Z,44.87
2019-04-30T04:06:12.523Z,45.23
2019-04-30T04:09:04.427Z,48.30
2019-04-30T04:11:39.688Z,47.77
2019-04-30T04:14:10.050Z,46.97
2019-04-30T04:16:41.091Z,42.17
2019-04-30T04:19:11.427Z,43.97
2019-04-30T04:21:41.322Z,46.40
2019-04-30T04:24:11.309Z,48.10
2019-04-30T04:26:44.595Z,44.43
2019-04-30T04:29:14.390Z,47.90
2019-04-30T04:31:44.266Z,45.87
2019-04-30T04:34:14.229Z,48.20
2019-04-30T04:36:44.160Z,47.40
2019-04-30T04:39:14.734Z,46.87
2019-04-30T04:41:44.636Z,51.63
2019-04-30T04:44:14.598Z,50.57
2019-04-30T04:46:44.557Z,48.63
2019-04-30T04:49:14.751Z,52.47
2019-04-30T04:51:44.709Z,48.67
2019-04-30T04:54:14.617Z,46.77
2019-04-30T04:56:44.594Z,50.37
2019-04-30T04:59:14.545Z,51.57
2019-04-30T05:01:44.411Z,46.83
2019-04-30T05:04:14.271Z,50.20
2019-04-30T05:06:44.452Z,47.27
2019-04-30T05:09:15.275Z,45.00
2019-04-30T05:11:45.266Z,44.73
2019-04-30T05:14:15.181Z,43.47
2019-04-30T05:16:45.231Z,45.27
2019-04-30T05:19:15.165Z,43.60
2019-04-30T05:21:45.099Z,46.70
2019-04-30T05:24:15.237Z,45.73
2019-04-30T05:26:45.183Z,43.73
2019-04-30T05:29:15.421Z,39.27
2019-04-30T05:31:45.368Z,45.63
2019-04-30T05:34:15.230Z,45.40
2019-04-30T05:36:45.033Z,44.73
2019-04-30T05:39:14.972Z,45.00
2019-04-30T05:41:44.841Z,45.47
2019-04-30T05:44:14.790Z,42.60
2019-04-30T05:46:44.654Z,43.27
2019-04-30T05:49:14.528Z,44.57
2019-04-30T05:51:53.542Z,45.43
2019-04-30T05:54:18.983Z,43.20
2019-04-30T05:56:50.127Z,46.67
2019-04-30T05:59:20.687Z,46.17
2019-04-30T06:01:50.950Z,49.73
2019-04-30T06:04:20.928Z,51.67
2019-04-30T06:06:50.905Z,45.10
2019-04-30T06:09:33.986Z,51.73
2019-04-30T06:12:22.273Z,45.43
2019-04-30T06:14:56.348Z,45.03
2019-04-30T06:17:29.390Z,41.93
2019-04-30T06:19:59.416Z,42.40
2019-04-30T06:22:29.812Z,44.53
2019-04-30T06:24:59.777Z,45.93
2019-04-30T06:27:29.997Z,50.23
2019-04-30T06:29:59.949Z,45.47
2019-04-30T06:32:30.007Z,46.77
2019-04-30T06:35:00.067Z,46.50
2019-04-30T06:37:31.626Z,47.23
2019-04-30T06:40:01.684Z,45.50
2019-04-30T06:42:31.615Z,46.53
2019-04-30T06:45:01.918Z,45.60
2019-04-30T06:47:33.436Z,43.87
2019-04-30T06:50:03.535Z,43.07
2019-04-30T06:52:33.514Z,47.37
2019-04-30T06:55:03.934Z,41.10
2019-04-30T06:57:34.139Z,45.03
2019-04-30T07:00:05.043Z,47.80
2019-04-30T07:02:35.238Z,37.37
2019-04-30T07:05:05.621Z,36.27
2019-04-30T07:07:39.228Z,35.60
2019-04-30T07:10:29.474Z,36.27
2019-04-30T07:13:15.150Z,36.47
2019-04-30T07:15:45.051Z,34.03
2019-04-30T07:18:15.311Z,38.00
2019-04-30T07:20:45.181Z,35.63
2019-04-30T07:23:14.973Z,32.83
2019-04-30T07:25:44.909Z,36.13
2019-04-30T07:28:15.403Z,34.73
2019-04-30T07:30:45.590Z,33.93
2019-04-30T07:33:15.410Z,31.80
2019-04-30T07:35:45.184Z,36.73
2019-04-30T07:38:14.978Z,31.53
2019-04-30T07:40:44.860Z,32.10
2019-04-30T07:43:14.814Z,30.73
2019-04-30T07:45:44.782Z,32.43
2019-04-30T07:48:14.783Z,27.77
2019-04-30T07:50:45.817Z,31.80
2019-04-30T07:53:15.849Z,30.77
2019-04-30T07:55:45.743Z,32.90
2019-04-30T07:58:15.602Z,29.50
2019-04-30T08:00:45.821Z,32.17
2019-04-30T08:03:32.029Z,28.33
2019-04-30T08:06:02.513Z,25.60
2019-04-30T08:08:32.836Z,22.67
2019-04-30T08:11:02.781Z,23.50
2019-04-30T08:13:33.377Z,23.07
2019-04-30T08:16:03.843Z,26.23
2019-04-30T08:18:33.719Z,22.47
2019-04-30T08:21:03.655Z,21.53
2019-04-30T08:23:37.126Z,22.77
2019-04-30T08:26:05.546Z,23.37
2019-04-30T08:28:38.707Z,22.37
2019-04-30T08:31:09.271Z,20.60
2019-04-30T08:33:40.231Z,21.60
2019-04-30T08:36:10.461Z,27.43
2019-04-30T08:38:40.349Z,20.57
2019-04-30T08:41:10.294Z,23.87
2019-04-30T08:43:40.092Z,24.30
2019-04-30T08:46:10.022Z,30.40
2019-04-30T08:48:50.335Z,29.10
2019-04-30T08:51:13.921Z,25.80
2019-04-30T08:53:44.115Z,23.93
2019-04-30T08:56:15.432Z,22.40
2019-04-30T08:58:45.385Z,25.47
2019-04-30T09:01:15.345Z,25.13
2019-04-30T09:03:45.407Z,23.40
2019-04-30T09:06:26.321Z,24.90
2019-04-30T09:08:59.380Z,24.73
2019-04-30T09:11:38.459Z,23.10
2019-04-30T09:14:03.042Z,23.93
2019-04-30T09:16:32.933Z,22.87
2019-04-30T09:19:03.193Z,21.30
2019-04-30T09:21:33.149Z,26.90
2019-04-30T09:24:03.039Z,21.00
2019-04-30T09:26:32.990Z,25.67
2019-04-30T09:29:03.168Z,26.20
2019-04-30T09:31:33.114Z,25.13
2019-04-30T09:34:14.275Z,23.97
2019-04-30T09:36:35.168Z,29.13
2019-04-30T09:39:08.781Z,28.23
2019-04-30T09:41:40.989Z,25.20
2019-04-30T09:44:10.654Z,25.47
2019-04-30T09:46:40.634Z,26.33
2019-04-30T09:49:10.461Z,25.20
2019-04-30T09:51:40.843Z,27.13
2019-04-30T09:54:12.686Z,27.40
2019-04-30T09:56:42.682Z,25.17
2019-04-30T09:59:12.566Z,21.57
2019-04-30T10:01:42.510Z,21.03
2019-04-30T10:04:12.985Z,24.50
2019-04-30T10:06:43.067Z,26.43
2019-04-30T10:09:14.602Z,24.83
2019-04-30T10:11:52.919Z,24.93
2019-04-30T10:14:22.865Z,24.27
2019-04-30T10:17:26.901Z,28.13
2019-04-30T10:19:56.699Z,29.20
2019-04-30T10:22:26.696Z,26.37
2019-04-30T10:24:56.707Z,23.93
2019-04-30T10:27:29.185Z,30.13
2019-04-30T10:29:59.376Z,24.60
2019-04-30T10:32:30.118Z,25.87
2019-04-30T10:35:00.507Z,22.47
2019-04-30T10:37:30.800Z,20.43
2019-04-30T10:40:00.826Z,21.63
2019-04-30T10:42:34.581Z,23.90
2019-04-30T10:45:03.502Z,25.87
2019-04-30T10:47:33.456Z,24.60
2019-04-30T10:50:05.306Z,28.60
2019-04-30T10:52:35.249Z,22.80
2019-04-30T10:55:05.354Z,23.53
2019-04-30T10:57:35.311Z,25.33
2019-04-30T11:00:07.861Z,23.20
2019-04-30T11:02:38.683Z,29.87
2019-04-30T11:05:09.070Z,26.13
2019-04-30T11:07:39.083Z,24.97
2019-04-30T11:10:09.800Z,18.97
2019-04-30T11:12:39.839Z,18.90
2019-04-30T11:15:11.063Z,27.03
2019-04-30T11:17:41.337Z,21.87
2019-04-30T11:20:11.976Z,21.80
2019-04-30T11:22:42.380Z,20.33
2019-04-30T11:25:12.838Z,18.40
2019-04-30T11:27:43.597Z,19.93
2019-04-30T11:30:21.438Z,18.80
2019-04-30T11:32:46.485Z,22.87
2019-04-30T11:35:18.487Z,18.03
2019-04-30T11:37:48.564Z,14.53
2019-04-30T11:40:34.376Z,15.27
2019-04-30T11:42:59.094Z,16.03
2019-04-30T11:46:19.655Z,19.50
2019-04-30T11:48:50.881Z,17.20
2019-04-30T11:51:22.568Z,16.77
2019-04-30T11:53:52.540Z,18.73
2019-04-30T11:56:22.611Z,14.90
2019-04-30T11:58:52.574Z,15.70
2019-04-30T12:01:24.898Z,14.53
2019-04-30T12:03:56.234Z,12.93
2019-04-30T12:06:26.185Z,14.20
2019-04-30T12:09:20.110Z,16.10
2019-04-30T12:11:50.697Z,15.90
2019-04-30T12:14:20.805Z,18.13
2019-04-30T12:16:50.867Z,17.90
2019-04-30T12:19:21.741Z,16.43
2019-04-30T12:21:51.690Z,15.93
2019-04-30T12:24:21.566Z,14.23
2019-04-30T12:26:51.526Z,15.37
2019-04-30T12:29:21.472Z,15.93
2019-04-30T12:31:54.391Z,13.60
2019-04-30T12:34:24.203Z,14.67
2019-04-30T12:36:54.291Z,12.33
2019-04-30T12:39:24.152Z,15.27
2019-04-30T12:41:54.050Z,15.07
2019-04-30T12:44:43.452Z,13.07
2019-04-30T12:47:13.335Z,13.90
2019-04-30T12:49:55.883Z,11.43
2019-04-30T12:52:46.336Z,15.90
2019-04-30T12:55:53.941Z,14.03
2019-04-30T12:58:23.888Z,11.60
2019-04-30T13:01:04.030Z,11.20
2019-04-30T13:03:34.355Z,13.43
2019-04-30T13:06:05.233Z,11.83
2019-04-30T13:08:36.308Z,13.83
2019-04-30T13:11:12.088Z,13.10
2019-04-30T13:13:40.909Z,16.20
2019-04-30T13:16:12.313Z,14.53
2019-04-30T13:18:42.268Z,14.53
2019-04-30T13:21:12.168Z,11.30
2019-04-30T13:23:42.191Z,10.17
2019-04-30T13:26:13.409Z,12.07
2019-04-30T13:28:53.843Z,11.17
2019-04-30T13:31:23.739Z,13.40
2019-04-30T13:34:01.309Z,11.67
2019-04-30T13:36:30.863Z,11.63
2019-04-30T13:39:09.438Z,12.57
2019-04-30T13:41:46.176Z,11.40
2019-04-30T13:44:19.878Z,11.53
2019-04-30T13:46:53.114Z,14.20
2019-04-30T13:49:22.983Z,13.53
2019-04-30T13:51:52.978Z,13.53
2019-04-30T13:57:13.517Z,13.50
2019-04-30T13:59:43.882Z,14.50
2019-04-30T14:02:14.026Z,15.60
2019-04-30T14:05:02.078Z,12.80
2019-04-30T14:07:59.824Z,12.23
2019-04-30T14:10:33.191Z,12.47
2019-04-30T14:13:05.462Z,14.97
2019-04-30T14:15:35.869Z,14.93
2019-04-30T14:18:06.203Z,10.40
2019-04-30T14:20:36.408Z,9.10
2019-04-30T14:23:08.510Z,14.00
2019-04-30T14:25:39.262Z,11.63
2019-04-30T14:28:09.552Z,12.00
2019-04-30T14:30:40.641Z,14.90
2019-04-30T14:33:22.710Z,16.83
2019-04-30T14:35:42.666Z,14.20
2019-04-30T14:38:13.054Z,15.47
2019-04-30T14:40:43.507Z,12.47
2019-04-30T14:43:20.149Z,12.03
2019-04-30T14:46:10.307Z,12.57
2019-04-30T14:48:47.073Z,12.03
2019-04-30T14:51:18.923Z,12.67
2019-04-30T14:54:06.517Z,14.27
2019-04-30T14:56:42.777Z,13.33
2019-04-30T14:59:39.007Z,9.50
2019-04-30T15:02:43.413Z,10.37
2019-04-30T15:05:14.919Z,11.23
2019-04-30T15:07:44.882Z,11.57
2019-04-30T15:10:16.153Z,9.60
2019-04-30T15:12:47.002Z,12.83
2019-04-30T15:15:19.086Z,13.60
2019-04-30T15:17:49.303Z,12.10
2019-04-30T15:20:19.776Z,11.93
2019-04-30T15:23:10.621Z,10.20
2019-04-30T15:25:40.624Z,9.57
2019-04-30T15:28:11.809Z,9.60
2019-04-30T15:30:42.215Z,9.90
2019-04-30T15:33:25.902Z,13.03
2019-04-30T15:35:55.803Z,11.97
2019-04-30T15:38:44.654Z,13.70
2019-04-30T15:41:14.898Z,17.13
2019-04-30T15:43:44.949Z,14.70
2019-04-30T15:46:15.614Z,20.33
2019-04-30T15:48:46.534Z,19.03
2019-04-30T15:51:16.537Z,22.10
2019-04-30T15:53:46.489Z,21.47
2019-04-30T15:56:16.473Z,18.00
2019-04-30T15:59:08.894Z,16.13
2019-04-30T16:01:39.575Z,16.30
2019-04-30T16:04:10.733Z,17.63
2019-04-30T16:06:40.689Z,20.47
2019-04-30T16:09:13.417Z,21.50
2019-04-30T16:11:49.749Z,19.37
2019-04-30T16:14:26.677Z,21.27
2019-04-30T16:17:05.261Z,19.80
2019-04-30T16:19:35.508Z,20.77
2019-04-30T16:22:06.807Z,21.87
2019-04-30T16:24:38.553Z,20.17
2019-04-30T16:27:09.751Z,18.33
2019-04-30T16:29:40.723Z,20.07
2019-04-30T16:32:11.340Z,21.33
2019-04-30T16:34:41.257Z,26.07
2019-04-30T16:37:11.551Z,20.23
2019-04-30T16:39:41.839Z,23.00
2019-04-30T16:42:12.140Z,22.93
2019-04-30T16:44:42.189Z,24.83
2019-04-30T16:47:16.034Z,22.23
2019-04-30T16:49:44.321Z,21.57
2019-04-30T16:52:14.647Z,20.80
2019-04-30T16:54:44.687Z,18.40
2019-04-30T16:57:14.852Z,22.60
2019-04-30T16:59:44.856Z,21.87
2019-04-30T17:02:16.767Z,22.77
2019-04-30T17:05:05.764Z,23.23
2019-04-30T17:08:01.860Z,24.00
2019-04-30T17:10:41.337Z,21.80
2019-04-30T17:13:23.247Z,19.87
2019-04-30T17:15:56.353Z,20.87
2019-04-30T17:18:29.743Z,19.00
2019-04-30T17:20:59.823Z,24.20
2019-04-30T17:23:29.803Z,24.93
2019-04-30T17:26:00.275Z,20.33
2019-04-30T17:28:30.392Z,21.90
2019-04-30T17:31:04.971Z,21.83
2019-04-30T17:33:34.865Z,20.73
2019-04-30T17:36:05.236Z,23.03
2019-04-30T17:38:35.261Z,23.27
2019-04-30T17:41:05.515Z,21.73
2019-04-30T17:43:35.688Z,22.80
2019-04-30T17:46:05.965Z,22.10
2019-04-30T17:48:36.125Z,24.93
2019-04-30T17:51:06.445Z,30.00
2019-04-30T17:53:38.910Z,26.73
2019-04-30T17:56:09.184Z,31.07
2019-04-30T17:58:39.326Z,29.43
2019-04-30T18:01:10.024Z,27.40
2019-04-30T18:03:40.504Z,26.33
2019-04-30T18:06:11.024Z,25.27
2019-04-30T18:08:41.724Z,29.87
2019-04-30T18:11:11.758Z,27.53
2019-04-30T18:13:42.570Z,24.43
2019-04-30T18:16:12.659Z,26.13
2019-04-30T18:19:13.914Z,25.63
2019-04-30T18:21:49.156Z,27.57
2019-04-30T18:24:31.820Z,26.70
2019-04-30T18:27:08.365Z,24.47
2019-04-30T18:29:38.468Z,27.60
2019-04-30T18:32:09.365Z,26.63
2019-04-30T18:34:41.049Z,24.20
2019-04-30T18:37:11.495Z,28.57
2019-04-30T18:39:41.936Z,25.83
2019-04-30T18:42:12.428Z,30.23
2019-04-30T18:44:42.683Z,27.60
2019-04-30T18:47:13.486Z,25.97
2019-04-30T18:49:43.621Z,26.33
2019-04-30T18:52:13.905Z,26.43
2019-04-30T18:54:45.054Z,29.57
2019-04-30T18:57:15.165Z,27.73
2019-04-30T18:59:45.271Z,25.07
2019-04-30T19:02:15.224Z,24.57
2019-04-30T19:04:45.099Z,26.67
2019-04-30T19:07:38.556Z,26.97
2019-04-30T19:10:34.052Z,32.93
2019-04-30T19:13:41.240Z,29.00
2019-04-30T19:16:30.173Z,26.83
2019-04-30T19:19:09.457Z,29.10
2019-04-30T19:21:40.953Z,26.10
2019-04-30T19:24:10.902Z,30.73
2019-04-30T19:26:40.946Z,24.33
2019-04-30T19:29:11.368Z,24.73
2019-04-30T19:31:41.290Z,28.17
2019-04-30T19:34:11.348Z,29.37
2019-04-30T19:36:41.738Z,27.13
2019-04-30T19:39:13.267Z,26.00
2019-04-30T19:41:43.444Z,26.37
2019-04-30T19:44:14.253Z,26.27
2019-04-30T19:46:44.199Z,28.00
2019-04-30T19:49:14.902Z,26.60
2019-04-30T19:51:45.945Z,29.37
2019-04-30T19:54:15.808Z,24.20
2019-04-30T19:56:46.283Z,26.13
2019-04-30T19:59:16.175Z,30.57
2019-04-30T20:01:46.405Z,28.13
2019-04-30T20:04:16.273Z,26.67
2019-04-30T20:06:48.588Z,29.13
2019-04-30T20:09:19.387Z,27.60
2019-04-30T20:11:49.435Z,29.03
2019-04-30T20:14:19.350Z,29.30
2019-04-30T20:16:49.297Z,29.40
2019-04-30T20:19:19.215Z,32.90
2019-04-30T20:21:53.617Z,27.57
2019-04-30T20:24:21.254Z,30.37
2019-04-30T20:27:03.573Z,31.03
2019-04-30T20:29:22.570Z,27.13
2019-04-30T20:31:52.858Z,26.77
2019-04-30T20:34:22.818Z,30.10
2019-04-30T20:36:52.767Z,30.50
2019-04-30T20:39:49.337Z,27.43
2019-04-30T20:42:19.672Z,33.67
2019-04-30T20:44:49.612Z,36.60
2019-04-30T20:47:21.039Z,30.60
2019-04-30T20:49:53.172Z,31.10
2019-04-30T20:52:23.315Z,27.93
2019-04-30T20:54:53.226Z,30.37
2019-04-30T20:57:24.176Z,31.20
2019-04-30T20:59:54.570Z,38.13
2019-04-30T21:02:24.455Z,30.73
2019-04-30T21:04:54.329Z,30.33
2019-04-30T21:07:24.932Z,31.30
2019-04-30T21:09:55.172Z,30.67
2019-04-30T21:12:25.174Z,32.70
2019-04-30T21:14:55.106Z,31.90
2019-04-30T21:17:25.063Z,30.73
2019-04-30T21:19:54.954Z,34.27
2019-04-30T21:22:24.825Z,30.47
2019-04-30T21:24:54.789Z,32.40
2019-04-30T21:27:24.674Z,31.67
2019-04-30T21:29:54.535Z,32.73
2019-04-30T21:32:46.237Z,33.50
2019-04-30T21:35:34.974Z,35.30
2019-04-30T21:38:05.289Z,32.67
2019-04-30T21:40:36.717Z,31.57
2019-04-30T21:43:06.797Z,31.83
2019-04-30T21:45:36.671Z,32.07
2019-04-30T21:48:06.618Z,31.53
2019-04-30T21:50:36.550Z,31.47
2019-04-30T21:53:06.438Z,34.00
2019-04-30T21:55:36.363Z,33.67
2019-04-30T21:58:06.237Z,34.57
2019-04-30T22:00:54.623Z,37.40
2019-04-30T22:03:26.199Z,35.97
2019-04-30T22:05:56.144Z,31.00
2019-04-30T22:08:26.118Z,33.33
2019-04-30T22:10:56.278Z,34.50
2019-04-30T22:13:26.358Z,34.33
2019-04-30T22:15:56.243Z,32.93
2019-04-30T22:18:26.195Z,38.13
2019-04-30T22:20:56.354Z,34.07
2019-04-30T22:23:26.457Z,36.20
2019-04-30T22:25:56.420Z,30.73
2019-04-30T22:28:26.403Z,31.40
2019-04-30T22:30:56.272Z,31.43
2019-04-30T22:33:26.167Z,36.40
2019-04-30T22:36:21.146Z,34.63
2019-04-30T22:39:29.896Z,37.90
2019-04-30T22:42:20.400Z,32.40
2019-04-30T22:44:50.930Z,33.17
2019-04-30T22:47:20.808Z,33.57
2019-04-30T22:49:50.759Z,35.87
2019-04-30T22:52:21.946Z,33.97
2019-04-30T22:54:53.016Z,34.07
2019-04-30T22:57:22.895Z,35.80
2019-04-30T22:59:52.846Z,31.77
2019-04-30T23:02:50.680Z,33.93
2019-04-30T23:05:20.759Z,33.33
2019-04-30T23:07:50.983Z,34.90
2019-04-30T23:10:20.932Z,34.73
2019-04-30T23:12:51.212Z,33.87
2019-04-30T23:15:21.926Z,32.27
2019-04-30T23:17:51.879Z,30.33
2019-04-30T23:20:22.203Z,30.97
2019-04-30T23:22:52.061Z,35.47
2019-04-30T23:25:21.909Z,35.37
2019-04-30T23:27:51.768Z,35.10
2019-04-30T23:30:21.655Z,34.70
2019-04-30T23:32:51.815Z,33.47
2019-04-30T23:35:21.763Z,34.47
2019-04-30T23:37:51.705Z,32.57
2019-04-30T23:40:31.077Z,32.80
2019-04-30T23:43:01.229Z,36.77
2019-04-30T23:45:31.424Z,36.67
2019-04-30T23:48:01.216Z,34.23
2019-04-30T23:50:31.161Z,33.03
2019-04-30T23:53:01.993Z,37.20
2019-04-30T23:55:32.173Z,40.93
2019-04-30T23:58:02.030Z,37.27
